Kenosha, Wisconsin
Current Conditions -  °F | °C
As of 7:53 PM on Sunday 23 Nov 2014 (Local Time) from KENW Reporting Station
Moderate Rain Moderate Rain  
Wind Chill: 45°   Ceiling: 300
Heat Index: 48°   Visibility: 2.5mi
Dew Point: 47°   Wind: 7mph
Humidity: 96%   Direction: 120°ESE
Pressure: 29.29"   Gusts: NA
Location:  42.59°N, 87.82°W
Report Text: KENW 240153Z 12006KT 2 1/2SM RA BR OVC003 09/08 A2929 RMK AO2 SLP919 P0013 T00890083
Loading
Personal Weather Stations






























Interactive Weather Map New forecast layout! Learn more

10-Day Weather Forecast

Advertisements
Track Severe Weather on mobile